Observations for CAGLIARI ELMAS, Italy (LIEE)

LIEE 200620Z 11013KT CAVOK 17/10 Q1021  
LIEE 200550Z 11012KT CAVOK 16/09 Q1021  
LIEE 200520Z 11012KT CAVOK 16/09 Q1021  
LIEE 200450Z 11011KT CAVOK 16/09 Q1021  
LIEE 200420Z 10012KT CAVOK 15/09 Q1021  
LIEE 200350Z 11011KT CAVOK 15/09 Q1021  
LIEE 200320Z 11010KT CAVOK 15/09 Q1021  
LIEE 200250Z 11011KT CAVOK 15/08 Q1021  
LIEE 200220Z 11011KT CAVOK 16/08 Q1021  
LIEE 200150Z 11010KT CAVOK 16/07 Q1022  
LIEE 200120Z 11011KT CAVOK 16/07 Q1022  
LIEE 200050Z 12011KT CAVOK 16/09 Q1022  
LIEE 200020Z 12012KT CAVOK 16/09 Q1022  
LIEE 192350Z 14014KT CAVOK 16/09 Q1022  
LIEE 192320Z 13015KT CAVOK 17/08 Q1022  
LIEE 192250Z 13016KT CAVOK 17/06 Q1023  
LIEE 192220Z 13018KT CAVOK 17/06 Q1023  
LIEE 192150Z 13016KT CAVOK 17/05 Q1023  
LIEE 192120Z 12013KT CAVOK 17/05 Q1023  
LIEE 192050Z 13015KT CAVOK 17/07 Q1023  
LIEE 192020Z 13014KT CAVOK 17/08 Q1023  
LIEE 191950Z 13013KT CAVOK 17/08 Q1023  
LIEE 191920Z 13012KT CAVOK 17/07 Q1023  
LIEE 191850Z 12013KT CAVOK 17/08 Q1023  
LIEE 191820Z 12014KT CAVOK 17/07 Q1023  
LIEE 191750Z 12014KT CAVOK 17/07 Q1023  
LIEE 191720Z 12015KT CAVOK 18/07 Q1023  
LIEE 191650Z 12015KT CAVOK 18/08 Q1023  
LIEE 191620Z 12014KT CAVOK 18/09 Q1023  
LIEE 191550Z 12016KT CAVOK 18/09 Q1023  
LIEE 191520Z 13016KT CAVOK 18/10 Q1023  
LIEE 191420Z 13020KT CAVOK 19/09 Q1023  
LIEE 191350Z 12020KT CAVOK 19/10 Q1023  
LIEE 191250Z 13021KT CAVOK 20/10 Q1023  
LIEE 191220Z 13021KT CAVOK 20/09 Q1023  
LIEE 191150Z 13022KT CAVOK 20/09 Q1023  
LIEE 191120Z 13021KT CAVOK 20/09 Q1023  
LIEE 191050Z 13022KT CAVOK 19/09 Q1023  
LIEE 191020Z 13020G30KT CAVOK 20/10 Q1023   
LIEE 190950Z 13021KT CAVOK 19/09 Q1023  
LIEE 190920Z 12019KT CAVOK 19/10 Q1023  
LIEE 190850Z 12019KT 9999 FEW025 19/10 Q1023
LIEE 190820Z 12018KT CAVOK 19/10 Q1023  
LIEE 190750Z 12018KT CAVOK 18/10 Q1022  
LIEE 190720Z 12015KT CAVOK 18/10 Q1022  
LIEE 190650Z 11015KT CAVOK 17/10 Q1022  
LIEE 190620Z 11013KT CAVOK 17/10 Q1022  
LIEE 190550Z 11012KT CAVOK 16/10 Q1021